createdAt,value
2019-04-11T00:00:25.332Z,9
2019-04-11T00:01:37.038Z,10
2019-04-11T00:02:49.589Z,8.9
2019-04-11T00:04:01.778Z,9.8
2019-04-11T00:05:13.974Z,8.6
2019-04-11T00:06:26.167Z,9.5
2019-04-11T00:07:38.362Z,8.1
2019-04-11T00:08:50.781Z,8.2
2019-04-11T00:10:02.762Z,9.1
2019-04-11T00:11:14.944Z,8.2
2019-04-11T00:12:27.146Z,8.6
2019-04-11T00:13:39.343Z,9.8
2019-04-11T00:14:51.532Z,9.2
2019-04-11T00:16:03.734Z,7.8
2019-04-11T00:17:15.923Z,10.7
2019-04-11T00:18:28.125Z,10.3
2019-04-11T00:19:40.313Z,10.4
2019-04-11T00:20:52.508Z,9.9
2019-04-11T00:22:04.707Z,11
2019-04-11T00:23:16.901Z,10.5
2019-04-11T00:24:29.091Z,11.7
2019-04-11T00:25:41.291Z,11.1
2019-04-11T00:26:53.477Z,11.5
2019-04-11T00:28:05.684Z,11.4
2019-04-11T00:29:17.881Z,12
2019-04-11T00:30:30.101Z,11.9
2019-04-11T00:31:42.287Z,12.2
2019-04-11T00:32:54.050Z,13
2019-04-11T00:34:06.667Z,14.7
2019-04-11T00:35:18.851Z,13.2
2019-04-11T00:36:31.004Z,13
2019-04-11T00:37:43.255Z,13.2
2019-04-11T00:38:55.437Z,13.2
2019-04-11T00:40:07.639Z,12.6
2019-04-11T00:41:19.832Z,13.2
2019-04-11T00:42:32.019Z,14.2
2019-04-11T00:43:44.221Z,13.5
2019-04-11T00:44:56.419Z,14.1
2019-04-11T00:46:08.615Z,13.5
2019-04-11T00:47:20.914Z,14.1
2019-04-11T00:48:33.003Z,12.9
2019-04-11T00:49:45.193Z,14.1
2019-04-11T00:50:57.392Z,16.1
2019-04-11T00:52:09.590Z,15.8
2019-04-11T00:53:21.868Z,15.6
2019-04-11T00:54:33.982Z,15.5
2019-04-11T00:55:46.171Z,15
2019-04-11T00:56:58.369Z,16.1
2019-04-11T00:58:10.057Z,16.9
2019-04-11T00:59:22.757Z,16.6
2019-04-11T01:00:34.952Z,19.1
2019-04-11T01:01:47.149Z,19
2019-04-11T01:02:59.340Z,17.3
2019-04-11T01:04:11.559Z,18.1
2019-04-11T01:05:23.727Z,17
2019-04-11T01:06:35.926Z,17.3
2019-04-11T01:07:48.237Z,16.9
2019-04-11T01:09:00.323Z,18
2019-04-11T01:10:12.513Z,17.3
2019-04-11T01:11:24.710Z,15.8
2019-04-11T01:12:36.902Z,17.9
2019-04-11T01:13:49.095Z,16.4
2019-04-11T01:15:01.298Z,17.3
2019-04-11T01:16:13.480Z,16.3
2019-04-11T01:17:25.068Z,16.5
2019-04-11T01:18:37.875Z,16.7
2019-04-11T01:19:50.075Z,17.3
2019-04-11T01:21:02.263Z,17.4
2019-04-11T01:22:14.046Z,15.2
2019-04-11T01:23:26.659Z,17.4
2019-04-11T01:24:38.857Z,16.8
2019-04-11T01:25:51.046Z,14.8
2019-04-11T01:27:03.245Z,14.7
2019-04-11T01:28:15.433Z,14.6
2019-04-11T01:29:27.627Z,16.6
2019-04-11T01:30:39.829Z,16.3
2019-04-11T01:31:52.024Z,14.5
2019-04-11T01:33:04.226Z,14.8
2019-04-11T01:34:16.414Z,14.9
2019-04-11T01:35:28.609Z,15.5
2019-04-11T01:36:40.080Z,16.6
2019-04-11T01:37:53.000Z,13.9
2019-04-11T01:39:05.019Z,16.1
2019-04-11T01:40:17.507Z,15.7
2019-04-11T01:41:29.588Z,15.2
2019-04-11T01:42:41.795Z,15
2019-04-11T01:43:53.097Z,16.9
2019-04-11T01:45:06.170Z,15.2
2019-04-11T01:46:18.367Z,16.4
2019-04-11T01:47:30.562Z,16.7
2019-04-11T01:48:42.755Z,16.2
2019-04-11T01:49:54.952Z,15.9
2019-04-11T01:51:07.015Z,17.2
2019-04-11T01:52:19.341Z,15.6
2019-04-11T01:54:43.753Z,16.8
2019-04-11T01:55:55.934Z,17.7
2019-04-11T01:57:08.121Z,16.2
2019-04-11T01:58:20.317Z,17.4
2019-04-11T01:59:32.510Z,15.7
2019-04-11T02:00:44.711Z,16.4
2019-04-11T02:01:56.921Z,15
2019-04-11T02:03:09.101Z,14.7
2019-04-11T02:04:21.300Z,16.5
2019-04-11T02:05:33.493Z,15.9
2019-04-11T02:06:45.694Z,15.6
2019-04-11T02:07:57.876Z,16.6
2019-04-11T02:09:10.081Z,17.3
2019-04-11T02:10:22.272Z,17.1
2019-04-11T02:11:34.469Z,15.7
2019-04-11T02:12:46.853Z,17.4
2019-04-11T02:13:58.863Z,16
2019-04-11T02:15:11.063Z,18.1
2019-04-11T02:16:23.253Z,17.2
2019-04-11T02:17:35.439Z,17.8
2019-04-11T02:18:47.638Z,16.2
2019-04-11T02:19:59.836Z,15.9
2019-04-11T02:21:12.024Z,14.8
2019-04-11T02:22:24.226Z,16.5
2019-04-11T02:23:36.414Z,17
2019-04-11T02:24:48.616Z,15.8
2019-04-11T02:26:00.812Z,16.4
2019-04-11T02:27:13.007Z,16.4
2019-04-11T02:28:25.196Z,14.5
2019-04-11T02:29:37.423Z,15.3
2019-04-11T02:30:49.058Z,16
2019-04-11T02:32:01.792Z,16.5
2019-04-11T02:33:13.975Z,17.1
2019-04-11T02:34:26.176Z,18.2
2019-04-11T02:35:38.003Z,18.3
2019-04-11T02:36:50.603Z,18.3
2019-04-11T02:38:02.757Z,17.5
2019-04-11T02:39:14.954Z,17.6
2019-04-11T02:40:27.161Z,17.5
2019-04-11T02:41:39.357Z,17.7
2019-04-11T02:42:51.547Z,18.8
2019-04-11T02:44:03.731Z,17.6
2019-04-11T02:45:15.935Z,18.7
2019-04-11T02:46:28.127Z,18
2019-04-11T02:47:40.333Z,15.8
2019-04-11T02:48:52.516Z,16
2019-04-11T02:50:04.714Z,15.6
2019-04-11T02:51:16.906Z,16
2019-04-11T02:52:29.106Z,16.1
2019-04-11T02:53:41.289Z,16.1
2019-04-11T02:54:53.492Z,15.4
2019-04-11T02:56:05.684Z,15.7
2019-04-11T02:57:17.885Z,15.9
2019-04-11T02:58:30.082Z,16.7
2019-04-11T02:59:42.268Z,15.9
2019-04-11T03:00:54.473Z,16.3
2019-04-11T03:02:06.067Z,15
2019-04-11T03:03:18.862Z,15.8
2019-04-11T03:04:31.052Z,15
2019-04-11T03:05:43.254Z,17.5
2019-04-11T03:06:55.449Z,15.1
2019-04-11T03:08:07.641Z,14.4
2019-04-11T03:09:19.833Z,16.6
2019-04-11T03:10:32.003Z,15.3
2019-04-11T03:11:44.225Z,16.4
2019-04-11T03:12:56.414Z,15.7
2019-04-11T03:14:08.611Z,15.7
2019-04-11T03:15:20.814Z,14.6
2019-04-11T03:16:32.994Z,15.2
2019-04-11T03:17:45.199Z,15.3
2019-04-11T03:18:57.422Z,15.3
2019-04-11T03:20:09.589Z,16
2019-04-11T03:21:21.007Z,16.7
2019-04-11T03:22:33.973Z,16.4
2019-04-11T03:23:46.183Z,15.9
2019-04-11T03:24:58.036Z,16.3
2019-04-11T03:26:10.574Z,16.1
2019-04-11T03:27:22.763Z,16.4
2019-04-11T03:28:34.959Z,16.8
2019-04-11T03:29:47.143Z,15
2019-04-11T03:30:59.354Z,16.9
2019-04-11T03:32:11.539Z,16.6
2019-04-11T03:33:23.739Z,17.5
2019-04-11T03:34:35.926Z,16.2
2019-04-11T03:35:48.121Z,14.1
2019-04-11T03:37:00.327Z,15.2
2019-04-11T03:38:12.518Z,14.9
2019-04-11T03:39:24.712Z,15.2
2019-04-11T03:40:36.907Z,15.3
2019-04-11T03:41:49.010Z,16.8
2019-04-11T03:43:01.297Z,14.8
2019-04-11T03:44:13.617Z,16.1
2019-04-11T03:45:25.685Z,15.9
2019-04-11T03:46:37.942Z,15.2
2019-04-11T03:47:50.077Z,15.4
2019-04-11T03:49:02.283Z,15.1
2019-04-11T03:50:14.047Z,13.9
2019-04-11T03:51:26.670Z,15.4
2019-04-11T03:52:38.851Z,15.6
2019-04-11T03:53:51.055Z,15.1
2019-04-11T03:55:03.255Z,15.7
2019-04-11T03:56:15.449Z,16.5
2019-04-11T03:57:27.637Z,15.9
2019-04-11T03:58:39.831Z,15
2019-04-11T03:59:52.037Z,13.5
2019-04-11T04:01:04.263Z,13
2019-04-11T04:02:16.421Z,15.8
2019-04-11T04:03:28.615Z,12.8
2019-04-11T04:04:40.816Z,13
2019-04-11T04:05:53.004Z,13
2019-04-11T04:07:05.202Z,15
2019-04-11T04:08:17.391Z,13.5
2019-04-11T04:09:29.594Z,13.2
2019-04-11T04:10:41.795Z,12.9
2019-04-11T04:11:53.983Z,12.4
2019-04-11T04:13:06.193Z,14.5
2019-04-11T04:14:18.373Z,14.8
2019-04-11T04:15:30.567Z,13.9
2019-04-11T04:16:42.767Z,11.4
2019-04-11T04:17:54.961Z,12.7
2019-04-11T04:19:07.153Z,12.7
2019-04-11T04:20:19.035Z,13.8
2019-04-11T04:21:31.540Z,12.1
2019-04-11T04:22:43.745Z,13.9
2019-04-11T04:23:55.932Z,12.6
2019-04-11T04:25:08.125Z,12.7
2019-04-11T04:26:20.327Z,13.5
2019-04-11T04:27:32.520Z,13.9
2019-04-11T04:28:44.720Z,12
2019-04-11T04:29:56.913Z,12.8
2019-04-11T04:31:09.115Z,12.4
2019-04-11T04:32:21.312Z,12.5
2019-04-11T04:33:33.501Z,12.6
2019-04-11T04:34:45.699Z,13.1
2019-04-11T04:35:57.893Z,12.6
2019-04-11T04:37:10.082Z,13.1
2019-04-11T04:38:22.323Z,13.9
2019-04-11T04:39:34.470Z,13.3
2019-04-11T04:40:46.675Z,13.1
2019-04-11T04:41:58.864Z,12.7
2019-04-11T04:43:11.062Z,11.7
2019-04-11T04:44:23.245Z,12.1
2019-04-11T04:45:35.450Z,11.9
2019-04-11T04:46:47.653Z,12
2019-04-11T04:47:59.834Z,11.8
2019-04-11T04:49:12.035Z,12.6
2019-04-11T04:50:24.232Z,12.2
2019-04-11T04:51:36.431Z,11
2019-04-11T04:52:48.618Z,11.9
2019-04-11T04:54:00.813Z,12.1
2019-04-11T04:55:13.008Z,12.6
2019-04-11T04:56:25.210Z,11.1
2019-04-11T04:57:37.396Z,12
2019-04-11T04:58:49.600Z,11.9
2019-04-11T05:00:01.788Z,12.8
2019-04-11T05:01:13.985Z,11.4
2019-04-11T05:02:26.180Z,11.6
2019-04-11T05:03:38.378Z,12.2
2019-04-11T05:04:50.576Z,13.1
2019-04-11T05:06:02.078Z,11.9
2019-04-11T05:07:14.964Z,14.7
2019-04-11T05:08:27.154Z,12.4
2019-04-11T05:09:39.356Z,12.8
2019-04-11T05:10:51.059Z,12
2019-04-11T05:12:03.751Z,15.4
2019-04-11T05:13:15.938Z,15.3
2019-04-11T05:14:28.137Z,16.3
2019-04-11T05:15:40.336Z,14.2
2019-04-11T05:16:52.525Z,13.2
2019-04-11T05:18:04.721Z,15.6
2019-04-11T05:19:16.915Z,15.3
2019-04-11T05:20:29.104Z,14.1
2019-04-11T05:21:41.306Z,13.3
2019-04-11T05:22:53.508Z,15.1
2019-04-11T05:24:05.690Z,16
2019-04-11T05:25:17.896Z,15
2019-04-11T05:26:30.083Z,14.4
2019-04-11T05:27:42.289Z,16.2
2019-04-11T05:28:54.474Z,14.4
2019-04-11T05:30:06.668Z,14
2019-04-11T05:31:18.866Z,15.2
2019-04-11T05:32:31.064Z,13.6
2019-04-11T05:33:43.256Z,14.5
2019-04-11T05:34:55.457Z,16
2019-04-11T05:36:07.645Z,16.2
2019-04-11T05:37:19.846Z,15.1
2019-04-11T05:38:32.030Z,15.7
2019-04-11T05:39:44.228Z,14.8
2019-04-11T05:40:56.423Z,14.4
2019-04-11T05:42:08.649Z,15.2
2019-04-11T05:43:20.818Z,14.7
2019-04-11T05:44:33.009Z,15.4
2019-04-11T05:45:45.215Z,16.6
2019-04-11T05:46:57.402Z,15.7
2019-04-11T05:48:09.607Z,15.4
2019-04-11T05:49:21.791Z,15.9
2019-04-11T05:50:33.992Z,15.8
2019-04-11T05:51:46.187Z,14.3
2019-04-11T05:52:58.378Z,15
2019-04-11T05:55:22.771Z,15.5
2019-04-11T05:56:34.956Z,13.5
2019-04-11T05:57:47.161Z,12.6
2019-04-11T05:58:59.350Z,14
2019-04-11T06:00:11.553Z,14
2019-04-11T06:01:23.007Z,13.1
2019-04-11T06:02:35.936Z,13.3
2019-04-11T06:03:48.131Z,12.7
2019-04-11T06:05:00.331Z,15.5
2019-04-11T06:06:12.053Z,12.7
2019-04-11T06:07:24.722Z,13.7
2019-04-11T06:08:36.942Z,12.2
2019-04-11T06:09:49.136Z,12
2019-04-11T06:11:01.312Z,14.1
2019-04-11T06:12:13.050Z,11.5
2019-04-11T06:13:25.696Z,11.2
2019-04-11T06:14:37.889Z,10.6
2019-04-11T06:15:50.083Z,11.2
2019-04-11T06:17:02.027Z,12
2019-04-11T06:18:14.486Z,12.3
2019-04-11T06:19:26.662Z,11.3
2019-04-11T06:20:38.869Z,12.1
2019-04-11T06:21:51.063Z,11.4
2019-04-11T06:23:03.257Z,12.6
2019-04-11T06:24:15.457Z,12.1
2019-04-11T06:25:27.643Z,9.7
2019-04-11T06:26:39.850Z,9.8
2019-04-11T06:27:52.039Z,9.7
2019-04-11T06:29:04.236Z,9.8
2019-04-11T06:30:16.043Z,10.2
2019-04-11T06:31:28.625Z,9.7
2019-04-11T06:32:40.842Z,11.1
2019-04-11T06:33:53.014Z,8.4
2019-04-11T06:35:05.207Z,8.8
2019-04-11T06:36:17.417Z,9.3
2019-04-11T06:37:29.060Z,9.1
2019-04-11T06:38:41.789Z,8.8
2019-04-11T06:39:53.986Z,8.7
2019-04-11T06:41:06.018Z,9.3
2019-04-11T06:42:18.368Z,9.2
2019-04-11T06:43:30.584Z,8.9
2019-04-11T06:44:42.774Z,8.2
2019-04-11T06:45:54.989Z,8.4
2019-04-11T06:47:07.163Z,9
2019-04-11T06:48:19.355Z,7.7
2019-04-11T06:49:31.056Z,9.1
2019-04-11T06:50:43.763Z,8.2
2019-04-11T06:51:55.944Z,8.3
2019-04-11T06:53:08.139Z,9.4
2019-04-11T06:54:20.328Z,7.6
2019-04-11T06:55:32.052Z,7.7
2019-04-11T06:56:44.725Z,7.8
2019-04-11T06:57:56.912Z,7.4
2019-04-11T06:59:09.120Z,7.2
2019-04-11T07:00:21.031Z,6.8
2019-04-11T07:01:33.507Z,6.4
2019-04-11T07:02:45.702Z,6.6
2019-04-11T07:03:57.888Z,7
2019-04-11T07:05:10.093Z,5.9
2019-04-11T07:06:22.279Z,7.3
2019-04-11T07:07:34.485Z,7.7
2019-04-11T07:08:46.672Z,7.3
2019-04-11T07:09:58.871Z,6.8
2019-04-11T07:11:11.082Z,7.1
2019-04-11T07:12:23.264Z,6.7
2019-04-11T07:13:35.466Z,7.5
2019-04-11T07:14:47.657Z,7.8
2019-04-11T07:15:59.085Z,5.8
2019-04-11T07:17:12.160Z,6.4
2019-04-11T07:18:24.241Z,6.8
2019-04-11T07:19:36.430Z,6.2
2019-04-11T07:20:48.626Z,7.7
2019-04-11T07:22:00.832Z,8.2
2019-04-11T07:23:13.019Z,5.5
2019-04-11T07:24:25.221Z,6.7
2019-04-11T07:25:37.410Z,6.4
2019-04-11T07:26:49.665Z,4.8
2019-04-11T07:28:01.799Z,6.4
2019-04-11T07:29:14.004Z,5.6
2019-04-11T07:30:26.190Z,7.4
2019-04-11T07:31:38.394Z,6.3
2019-04-11T07:32:50.579Z,5.4
2019-04-11T07:34:02.781Z,4.6
2019-04-11T07:35:14.981Z,4.3
2019-04-11T07:36:27.165Z,4.3
2019-04-11T07:37:39.365Z,4.9
2019-04-11T07:38:51.572Z,6
2019-04-11T07:40:03.752Z,4.1
2019-04-11T07:41:15.950Z,3.6
2019-04-11T07:42:28.153Z,5.7
2019-04-11T07:43:40.338Z,4.7
2019-04-11T07:44:52.540Z,5.1
2019-04-11T07:46:04.720Z,3.5
2019-04-11T07:47:16.928Z,5.3
2019-04-11T07:48:29.114Z,7
2019-04-11T07:49:41.311Z,4.3
2019-04-11T07:50:53.509Z,3.8
2019-04-11T07:52:05.708Z,4
2019-04-11T07:53:17.903Z,3.5
2019-04-11T07:54:30.098Z,3.5
2019-04-11T07:55:42.284Z,4.6
2019-04-11T07:56:54.493Z,4
2019-04-11T07:58:06.676Z,4.2
2019-04-11T07:59:18.892Z,3
2019-04-11T08:00:31.006Z,4.2
2019-04-11T08:01:43.264Z,3.9
2019-04-11T08:02:55.045Z,4.2
2019-04-11T08:04:07.667Z,4.1
2019-04-11T08:05:19.845Z,3.6
2019-04-11T08:06:32.096Z,5.4
2019-04-11T08:07:44.236Z,4.6
2019-04-11T08:08:56.432Z,4
2019-04-11T08:10:08.626Z,6.2
2019-04-11T08:11:20.824Z,4.4
2019-04-11T08:12:33.013Z,4.2
2019-04-11T08:13:45.223Z,4.9
2019-04-11T08:14:57.040Z,5.3
2019-04-11T08:16:09.607Z,5
2019-04-11T08:17:21.079Z,5.6
2019-04-11T08:18:33.987Z,5.1
2019-04-11T08:19:46.191Z,5.1
2019-04-11T08:20:58.381Z,5
2019-04-11T08:22:10.574Z,5.3
2019-04-11T08:23:22.077Z,4.9
2019-04-11T08:24:34.970Z,5.4
2019-04-11T08:25:47.159Z,6.2
2019-04-11T08:26:59.352Z,5
2019-04-11T08:28:11.551Z,6.3
2019-04-11T08:29:23.752Z,5.1
2019-04-11T08:30:35.953Z,5.8
2019-04-11T08:31:48.137Z,4.7
2019-04-11T08:33:00.033Z,4.8
2019-04-11T08:34:13.033Z,5.2
2019-04-11T08:35:24.723Z,5.5
2019-04-11T08:36:36.923Z,6.4
2019-04-11T08:37:49.115Z,5.9
2019-04-11T08:39:01.311Z,4.6
2019-04-11T08:40:13.504Z,5.2
2019-04-11T08:41:25.708Z,5.7
2019-04-11T08:42:37.890Z,5.4
2019-04-11T08:43:50.093Z,6.3
2019-04-11T08:45:02.280Z,7.7
2019-04-11T08:46:14.655Z,6.2
2019-04-11T08:47:26.670Z,6.1
2019-04-11T08:48:38.871Z,6.9
2019-04-11T08:49:51.006Z,6.3
2019-04-11T08:51:03.261Z,5.2
2019-04-11T08:52:15.460Z,5.8
2019-04-11T08:53:27.648Z,4.2
2019-04-11T08:54:39.847Z,5
2019-04-11T08:55:52.041Z,3.7
2019-04-11T08:57:04.239Z,4.3
2019-04-11T08:58:16.436Z,4.2
2019-04-11T08:59:28.633Z,5.7
2019-04-11T09:00:40.818Z,3.3
2019-04-11T09:01:53.022Z,4
2019-04-11T09:03:05.241Z,3.5
2019-04-11T09:04:17.405Z,4.6
2019-04-11T09:05:29.599Z,3.4
2019-04-11T09:06:42.523Z,4.6
2019-04-11T09:07:53.987Z,3.7
2019-04-11T09:10:18.386Z,4.2
2019-04-11T09:11:30.573Z,3.9
2019-04-11T09:12:42.769Z,3.1
2019-04-11T09:13:54.968Z,3.5
2019-04-11T09:15:07.156Z,3.7
2019-04-11T09:16:19.357Z,3.4
2019-04-11T09:17:31.559Z,3.8
2019-04-11T09:18:43.752Z,3.3
2019-04-11T09:19:55.948Z,4.2
2019-04-11T09:21:08.133Z,4.6
2019-04-11T09:22:20.034Z,4.5
2019-04-11T09:23:32.053Z,3.8
2019-04-11T09:24:44.727Z,4.3
2019-04-11T09:25:56.915Z,4.6
2019-04-11T09:27:09.116Z,4.2
2019-04-11T09:28:21.309Z,5
2019-04-11T09:29:33.508Z,4.1
2019-04-11T09:30:45.696Z,4.7
2019-04-11T09:31:57.899Z,4.3
2019-04-11T09:33:10.085Z,4
2019-04-11T09:34:22.281Z,4.3
2019-04-11T09:35:34.473Z,4.1
2019-04-11T09:36:46.688Z,4.8
2019-04-11T09:37:58.087Z,4.1
2019-04-11T09:39:11.065Z,4.5
2019-04-11T09:40:23.263Z,5.7
2019-04-11T09:41:35.457Z,4.1
2019-04-11T09:42:47.657Z,4.2
2019-04-11T09:43:59.860Z,3.2
2019-04-11T09:45:12.041Z,3.5
2019-04-11T09:46:24.025Z,3.8
2019-04-11T09:47:36.453Z,5.8
2019-04-11T09:48:48.635Z,4.6
2019-04-11T09:50:00.832Z,4.8
2019-04-11T09:51:13.037Z,5.8
2019-04-11T09:52:25.227Z,4.9
2019-04-11T09:53:37.702Z,4.3
2019-04-11T09:54:49.611Z,4.4
2019-04-11T09:56:01.813Z,4.7
2019-04-11T09:57:14.036Z,3.6
2019-04-11T09:58:26.202Z,4.7
2019-04-11T09:59:38.403Z,4
2019-04-11T10:00:50.598Z,3.5
2019-04-11T10:02:02.803Z,5.8
2019-04-11T10:03:14.992Z,4.2
2019-04-11T10:04:27.187Z,3.9
2019-04-11T10:05:39.385Z,3.2
2019-04-11T10:06:51.619Z,3.9
2019-04-11T10:08:03.782Z,3.6
2019-04-11T10:09:15.971Z,3.4
2019-04-11T10:10:28.017Z,3.3
2019-04-11T10:11:40.376Z,3.1
2019-04-11T10:12:52.562Z,3.3
2019-04-11T10:14:04.757Z,4.2
2019-04-11T10:15:16.967Z,3.9
2019-04-11T10:16:29.162Z,4
2019-04-11T10:17:41.353Z,4.5
2019-04-11T10:18:53.567Z,3.2
2019-04-11T10:20:05.810Z,3.9
2019-04-11T10:21:17.940Z,5.2
2019-04-11T10:22:30.138Z,3.9
2019-04-11T10:23:42.363Z,4.7
2019-04-11T10:24:54.536Z,3.9
2019-04-11T10:26:06.734Z,3.5
2019-04-11T10:27:18.933Z,3.5
2019-04-11T10:28:31.125Z,3
2019-04-11T10:29:43.324Z,3.7
2019-04-11T10:30:55.522Z,4.7
2019-04-11T10:32:07.711Z,4.5
2019-04-11T10:33:19.923Z,3.3
2019-04-11T10:34:32.129Z,2.9
2019-04-11T10:35:44.003Z,3.3
2019-04-11T10:36:56.490Z,3.5
2019-04-11T10:38:09.004Z,4.8
2019-04-11T10:39:20.900Z,3.1
2019-04-11T10:40:33.084Z,3.1
2019-04-11T10:41:45.032Z,3.6
2019-04-11T10:42:57.494Z,3.7
2019-04-11T10:44:09.680Z,4
2019-04-11T10:45:21.878Z,4
2019-04-11T10:46:34.074Z,3.4
2019-04-11T10:47:46.270Z,2.7
2019-04-11T10:48:58.479Z,3.8
2019-04-11T10:50:10.668Z,2.9
2019-04-11T10:51:22.880Z,3.7
2019-04-11T10:53:47.405Z,4.2
2019-04-11T10:54:59.458Z,3.7
2019-04-11T10:56:11.651Z,4.2
2019-04-11T10:57:23.849Z,3
2019-04-11T10:58:36.050Z,3.4
2019-04-11T10:59:48.234Z,3.3
2019-04-11T11:01:00.439Z,3.1
2019-04-11T11:02:12.064Z,3.6
2019-04-11T11:03:24.822Z,3
2019-04-11T11:04:37.036Z,3.4
2019-04-11T11:05:49.229Z,4.1
2019-04-11T11:07:01.482Z,4.5
2019-04-11T11:08:13.618Z,4.3
2019-04-11T11:09:25.825Z,4.5
2019-04-11T11:10:38.020Z,4.3
2019-04-11T11:11:50.213Z,4.9
2019-04-11T11:13:02.414Z,4.2
2019-04-11T11:14:14.608Z,3.9
2019-04-11T11:15:26.797Z,4.5
2019-04-11T11:16:38.995Z,3.5
2019-04-11T11:17:51.200Z,4.3
2019-04-11T11:19:03.397Z,4.3
2019-04-11T11:20:15.584Z,4.4
2019-04-11T11:21:27.792Z,4.9
2019-04-11T11:22:39.994Z,4.1
2019-04-11T11:23:52.179Z,3.8
2019-04-11T11:25:04.377Z,3.5
2019-04-11T11:26:16.572Z,5.2
2019-04-11T11:27:28.784Z,5
2019-04-11T11:28:40.967Z,3.7
2019-04-11T11:29:53.166Z,4.6
2019-04-11T11:31:05.363Z,4
2019-04-11T11:32:17.566Z,3.7
2019-04-11T11:33:29.755Z,4.2
2019-04-11T11:34:41.095Z,4.6
2019-04-11T11:35:54.145Z,4.7
2019-04-11T11:37:06.347Z,5.8
2019-04-11T11:38:18.550Z,3.5
2019-04-11T11:39:30.741Z,3.5
2019-04-11T11:40:42.939Z,4.3
2019-04-11T11:41:55.013Z,4.3
2019-04-11T11:43:07.332Z,4.2
2019-04-11T11:44:19.527Z,3.5
2019-04-11T11:45:31.072Z,4.3
2019-04-11T11:46:43.929Z,4.2
2019-04-11T11:47:56.118Z,5.3
2019-04-11T11:49:08.321Z,4.9
2019-04-11T11:50:20.516Z,4.9
2019-04-11T11:51:32.718Z,5.4
2019-04-11T11:52:44.905Z,4
2019-04-11T11:53:57.109Z,5.2
2019-04-11T11:55:09.314Z,4.9
2019-04-11T11:56:21.501Z,4.5
2019-04-11T11:57:33.703Z,3.9
2019-04-11T11:58:45.911Z,4.6
2019-04-11T11:59:58.012Z,4.9
2019-04-11T12:01:10.028Z,4.1
2019-04-11T12:02:22.481Z,4.2
2019-04-11T12:03:34.686Z,3.7
2019-04-11T12:04:46.879Z,4.4
2019-04-11T12:05:59.151Z,4.2
2019-04-11T12:07:11.276Z,5.2
2019-04-11T12:08:23.726Z,3.9
2019-04-11T12:09:35.066Z,4.4
2019-04-11T12:10:47.871Z,4
2019-04-11T12:12:00.083Z,3.9
2019-04-11T12:13:12.259Z,4.1
2019-04-11T12:14:24.458Z,3.6
2019-04-11T12:15:36.655Z,3.8
2019-04-11T12:16:48.845Z,3.5
2019-04-11T12:18:01.040Z,3.4
2019-04-11T12:19:13.245Z,4.2
2019-04-11T12:20:25.441Z,3.5
2019-04-11T12:21:37.650Z,3.4
2019-04-11T12:22:49.837Z,3.2
2019-04-11T12:24:02.033Z,3.1
2019-04-11T12:25:14.222Z,4.1
2019-04-11T12:26:26.459Z,3.6
2019-04-11T12:27:38.062Z,2.9
2019-04-11T12:28:50.833Z,2.7
2019-04-11T12:30:03.004Z,2.6
2019-04-11T12:31:15.212Z,3.6
2019-04-11T12:32:27.415Z,3.3
2019-04-11T12:33:39.605Z,3.4
2019-04-11T12:34:51.080Z,2.9
2019-04-11T12:36:04.007Z,3.3
2019-04-11T12:37:16.195Z,3.4
2019-04-11T12:38:28.393Z,3.8
2019-04-11T12:39:40.595Z,3.9
2019-04-11T12:40:52.795Z,4
2019-04-11T12:42:05.032Z,3.8
2019-04-11T12:43:17.181Z,4.2
2019-04-11T12:44:29.383Z,4
2019-04-11T12:45:41.058Z,4
2019-04-11T12:46:53.077Z,4.5
2019-04-11T12:48:05.096Z,3.7
2019-04-11T12:49:18.214Z,3.9
2019-04-11T12:50:30.036Z,4.1
2019-04-11T12:51:42.561Z,3.5
2019-04-11T12:52:54.762Z,3.4
2019-04-11T12:54:06.949Z,3.6
2019-04-11T12:55:19.152Z,3.8
2019-04-11T12:56:31.352Z,3.6
2019-04-11T12:57:43.539Z,5
2019-04-11T12:58:55.744Z,3.9
2019-04-11T13:00:07.941Z,3.8
2019-04-11T13:01:20.151Z,4
2019-04-11T13:02:32.346Z,5.1
2019-04-11T13:03:44.536Z,5
2019-04-11T13:04:56.727Z,4.5
2019-04-11T13:06:08.947Z,4.7
2019-04-11T13:07:21.132Z,5
2019-04-11T13:08:33.321Z,4.6
2019-04-11T13:09:45.514Z,4.9
2019-04-11T13:10:57.710Z,4.8
2019-04-11T13:12:09.910Z,5.7
2019-04-11T13:13:22.101Z,5.2
2019-04-11T13:14:34.035Z,6
2019-04-11T13:15:46.506Z,5.7
2019-04-11T13:16:58.688Z,6.3
2019-04-11T13:18:10.894Z,6.7
2019-04-11T13:19:23.089Z,6.5
2019-04-11T13:20:35.286Z,7
2019-04-11T13:21:47.480Z,7.6
2019-04-11T13:22:59.684Z,7.2
2019-04-11T13:24:11.894Z,7.4
2019-04-11T13:25:24.080Z,7.6
2019-04-11T14:12:18.866Z,4.4
2019-04-11T14:13:31.065Z,4.8
2019-04-11T14:14:43.260Z,5.3
2019-04-11T14:15:55.457Z,4.5
2019-04-11T14:17:07.650Z,5.2
2019-04-11T14:18:19.852Z,4.6
2019-04-11T14:19:32.042Z,4.8
2019-04-11T14:20:44.241Z,4.8
2019-04-11T14:21:56.439Z,4.9
2019-04-11T14:23:08.637Z,5.6
2019-04-11T14:24:20.829Z,5
2019-04-11T14:25:33.039Z,5
2019-04-11T14:26:45.022Z,5.2
2019-04-11T14:27:57.422Z,5.7
2019-04-11T14:29:09.062Z,5.3
2019-04-11T14:30:21.082Z,4.8
2019-04-11T14:31:34.008Z,5.7
2019-04-11T14:32:46.239Z,5.6
2019-04-11T14:33:58.414Z,6.2
2019-04-11T14:35:10.608Z,5.4
2019-04-11T14:36:22.790Z,5.5
2019-04-11T14:37:34.997Z,5.6
2019-04-11T14:38:47.190Z,4.8
2019-04-11T14:39:59.038Z,5.3
2019-04-11T14:41:11.057Z,5.2
2019-04-11T14:42:23.077Z,6
2019-04-11T14:43:35.009Z,4.5
2019-04-11T14:44:48.186Z,4.6
2019-04-11T14:46:00.393Z,4.9
2019-04-11T14:47:12.574Z,5.1
2019-04-11T14:48:24.759Z,5.5
2019-04-11T14:49:36.961Z,5
2019-04-11T14:50:49.158Z,4.8
2019-04-11T14:52:01.353Z,5
2019-04-11T14:53:13.549Z,5
2019-04-11T14:54:25.752Z,5
2019-04-11T14:55:37.946Z,4.4
2019-04-11T14:56:50.137Z,6.3
2019-04-11T14:58:02.033Z,5.1
2019-04-11T14:59:14.531Z,4.3
2019-04-11T15:00:26.730Z,5.4
2019-04-11T15:01:38.927Z,4.8
2019-04-11T15:02:51.129Z,5.5
2019-04-11T15:04:03.326Z,5
2019-04-11T15:05:15.511Z,5.3
2019-04-11T15:06:27.719Z,5.9
2019-04-11T15:07:39.917Z,5
2019-04-11T15:08:52.102Z,5.6
2019-04-11T15:10:04.309Z,4.9
2019-04-11T15:11:16.505Z,6
2019-04-11T15:12:28.695Z,5.2
2019-04-11T15:13:40.898Z,5.1
2019-04-11T15:14:53.116Z,6.3
2019-04-11T15:16:05.300Z,5.2
2019-04-11T15:17:17.797Z,5.1
2019-04-11T15:18:29.695Z,6
2019-04-11T15:19:42.085Z,4.4
2019-04-11T15:20:54.011Z,6.1
2019-04-11T15:22:06.272Z,5.3
2019-04-11T15:23:35.798Z,6.1
2019-04-11T15:24:30.675Z,5.7
2019-04-11T15:25:42.008Z,5.7
2019-04-11T15:26:55.066Z,5.7
2019-04-11T15:28:07.306Z,6.3
2019-04-11T15:29:19.457Z,5.9
2019-04-11T15:30:31.654Z,6
2019-04-11T15:31:43.085Z,6.5
2019-04-11T15:32:56.053Z,6.2
2019-04-11T15:34:08.251Z,8.2
2019-04-11T15:35:20.446Z,7.1
2019-04-11T15:36:32.658Z,6.6
2019-04-11T15:37:44.846Z,8.7
2019-04-11T15:38:57.036Z,7.2
2019-04-11T15:40:09.239Z,7.4
2019-04-11T15:41:21.421Z,7.1
2019-04-11T15:42:33.630Z,8
2019-04-11T15:43:45.828Z,7.2
2019-04-11T15:44:58.004Z,6.5
2019-04-11T15:46:10.213Z,5.6
2019-04-11T15:47:22.415Z,6
2019-04-11T15:48:34.613Z,7.9
2019-04-11T15:49:46.800Z,6.3
2019-04-11T15:50:59.000Z,5.6
2019-04-11T15:52:11.216Z,6.3
2019-04-11T15:53:23.040Z,6.6
2019-04-11T15:54:35.595Z,6.1
2019-04-11T15:55:47.808Z,6.6
2019-04-11T15:56:59.994Z,6.1
2019-04-11T15:58:12.194Z,7.5
2019-04-11T15:59:24.383Z,8
2019-04-11T16:00:36.058Z,7.6
2019-04-11T16:01:48.784Z,7
2019-04-11T16:03:00.097Z,7.4
2019-04-11T16:04:13.016Z,9.4
2019-04-11T16:05:25.375Z,8.1
2019-04-11T16:06:37.099Z,7.4
2019-04-11T16:07:49.770Z,6.8
2019-04-11T16:09:01.966Z,8.9
2019-04-11T16:10:14.155Z,7.9
2019-04-11T16:11:26.353Z,9.2
2019-04-11T16:12:38.551Z,8.2
2019-04-11T16:13:50.753Z,7.8
2019-04-11T16:15:02.943Z,8
2019-04-11T16:16:15.147Z,8
2019-04-11T16:17:27.343Z,9
2019-04-11T16:18:39.054Z,9.2
2019-04-11T16:19:51.731Z,9.2
2019-04-11T16:21:03.926Z,7.8
2019-04-11T16:22:16.135Z,7.7
2019-04-11T16:23:28.323Z,8.9
2019-04-11T16:24:40.537Z,10.4
2019-04-11T16:25:52.072Z,8.7
2019-04-11T16:27:04.914Z,7.2
2019-04-11T16:28:17.111Z,6.9
2019-04-11T16:29:29.311Z,8
2019-04-11T16:30:41.506Z,8.7
2019-04-11T16:31:53.709Z,9.3
2019-04-11T16:33:05.091Z,7.3
2019-04-11T16:34:18.100Z,7.3
2019-04-11T16:35:30.304Z,8.1
2019-04-11T16:36:42.488Z,7.8
2019-04-11T16:37:54.691Z,8.1
2019-04-11T16:39:06.904Z,7.2
2019-04-11T16:40:19.080Z,6.9
2019-04-11T16:41:31.280Z,7.9
2019-04-11T16:42:43.495Z,9.4
2019-04-11T16:43:55.687Z,7.7
2019-04-11T16:45:07.873Z,9.2
2019-04-11T16:46:20.073Z,8.3
2019-04-11T16:47:32.270Z,9
2019-04-11T16:48:44.459Z,8.4
2019-04-11T16:49:56.660Z,9.9
2019-04-11T16:51:08.865Z,7.6
2019-04-11T16:52:21.057Z,9.1
2019-04-11T16:53:33.304Z,10
2019-04-11T16:54:45.789Z,8.7
2019-04-11T16:55:57.662Z,8.9
2019-04-11T16:57:09.843Z,8.7
2019-04-11T16:58:22.040Z,8.7
2019-04-11T16:59:34.244Z,9.1
2019-04-11T17:00:46.441Z,8.9
2019-04-11T17:01:58.631Z,8.4
2019-04-11T17:03:10.836Z,7.8
2019-04-11T17:04:23.031Z,8.3
2019-04-11T17:05:35.225Z,7.7
2019-04-11T17:06:47.441Z,8.3
2019-04-11T17:07:59.622Z,8.2
2019-04-11T17:09:11.819Z,8.2
2019-04-11T17:10:24.015Z,9.4
2019-04-11T17:11:36.021Z,7.9
2019-04-11T17:12:48.644Z,8.5
2019-04-11T17:14:00.600Z,8.9
2019-04-11T17:15:12.800Z,8.7
2019-04-11T17:16:24.993Z,7.7
2019-04-11T17:17:37.019Z,9.4
2019-04-11T17:18:49.389Z,8.6
2019-04-11T17:20:01.058Z,8.6